Hoegh Berlin — C6XQ4 — position and weather

sailwx.info

Track history (hours):
 
Tides and Currents Weather Stations Pressure Air Temp Water Temp Dewpoint Dewpoint Depression Visibility Wind Speed Wind Dir Waves Ship Positions

Hoegh Berlin

Last reported at 2017-Jul-19 18:10 UTC. Time now 2017-Aug-24 03:07 UTC.
Position N 31°39' E 032°27'.
Warning: this ship's position is 35 days out of date.

Length 228 m; draft 8.6 m.

Type: Cargo ship. MMSI: 311019100.

Date/timePositionNaut miles runAvg speedWind from/ knotsBaromVisibWave heightAir tempDewpointWater temp
2017-Jul-19 18:10N 31°39' E 032°27'1512.8
2017-Jul-19 17:01N 31°49' E 032°39'013.2
2017-Jul-19 16:59N 31°49' E 032°40'713.0
2017-Jul-19 16:28N 31°48' E 032°48'6 2.8
2017-Jul-19 14:14N 31°50' E 032°55'0 1.6
2017-Jul-19 14:00N 31°50' E 032°54'1 1.6
2017-Jul-19 13:31N 31°51' E 032°54'1 1.5
2017-Jul-19 12:32N 31°52' E 032°53'0 1.4
2017-Jul-19 12:30N 31°52' E 032°52'6 0.9
2017-Jul-19 05:52N 31°55' E 032°47'12 8.3
2017-Jul-19 04:21N 32°04' E 032°57'813.6
2017-Jul-19 03:46N 32°10' E 033°04'513.5
2017-Jul-19 03:24N 32°13' E 033°08'613.4
2017-Jul-19 02:58N 32°17' E 033°13'613.4
2017-Jul-19 02:30N 32°22' E 033°18'713.3
2017-Jul-19 02:01N 32°26' E 033°24'713.5
2017-Jul-19 01:30N 32°31' E 033°30'713.5
2017-Jul-19 01:00N 32°36' E 033°35'713.7
2017-Jul-19 00:30N 32°40' E 033°41'713.9
2017-Jul-19 00:00N 32°45' E 033°47'714.0
2017-Jul-18 23:30N 32°50' E 033°53'714.0
2017-Jul-18 23:00N 32°55' E 033°58'714.0
2017-Jul-18 22:30N 33°00' E 034°04'713.9
2017-Jul-18 22:00N 33°05' E 034°10'713.9
2017-Jul-18 21:30N 33°10' E 034°16'713.8
2017-Jul-18 21:00N 33°15' E 034°22'713.8
2017-Jul-18 20:30N 33°20' E 034°28'713.9
2017-Jul-18 20:00N 33°24' E 034°34'713.8
2017-Jul-18 19:30N 33°29' E 034°40'713.8
2017-Jul-18 19:01N 33°34' E 034°46'713.8
2017-Jul-18 18:31N 33°39' E 034°51'713.6
2017-Jul-18 18:01N 33°44' E 034°57'713.8
2017-Jul-18 17:30N 33°49' E 035°03'713.9
2017-Jul-18 16:58N 33°54' E 035°09'2 0.2
2017-Jul-18 03:11N 33°54' E 035°12'314.6
2017-Jul-18 03:00N 33°54' E 035°09'915.0
2017-Jul-18 02:23N 33°56' E 034°58'1815.4
2017-Jul-18 01:13N 34°01' E 034°37'415.4
2017-Jul-18 00:59N 34°02' E 034°33'2115.3
2017-Jul-17 23:38N 34°08' E 034°09'215.8
2017-Jul-17 23:30N 34°08' E 034°07'2615.8
2017-Jul-17 21:51N 34°16' E 033°37'615.8
2017-Jul-17 21:30N 34°18' E 033°30'816.0
2017-Jul-17 21:00N 34°20' E 033°21'816.3
2017-Jul-17 20:30N 34°22' E 033°12'816.3
2017-Jul-17 20:00N 34°25' E 033°02'816.1
2017-Jul-17 19:30N 34°27' E 032°53'1616.0
2017-Jul-17 18:30N 34°32' E 032°34'815.9
2017-Jul-17 18:00N 34°34' E 032°25'815.9
2017-Jul-17 17:30N 34°36' E 032°16'815.6
2017-Jul-17 17:00N 34°38' E 032°07'915.7
2017-Jul-17 16:27N 34°41' E 031°57'715.9
2017-Jul-17 16:00N 34°43' E 031°48'3515.8
2017-Jul-17 13:47N 34°53' E 031°08'415.8
2017-Jul-17 13:30N 34°55' E 031°03'815.8
2017-Jul-17 13:00N 34°57' E 030°53'6116.7
2017-Jul-17 09:23N 35°15' E 029°43'1416.7
2017-Jul-17 08:34N 35°19' E 029°26'116.7
2017-Jul-17 08:29N 35°19' E 029°25'2116.7
2017-Jul-17 07:13N 35°25' E 029°00'416.6
2017-Jul-17 07:00N 35°26' E 028°56'18714.4
2017-Jul-16 17:58N 37°24' E 025°55'714.2
2017-Jul-16 17:30N 37°28' E 025°48'815.2
2017-Jul-16 17:00N 37°35' E 025°45'815.7
2017-Jul-16 16:30N 37°42' E 025°42'815.8
2017-Jul-16 16:00N 37°50' E 025°38'55 1.1
2017-Jul-14 16:25N 37°40' E 024°30'44114.7
2017-Jul-13 10:25N 36°13' E 015°30'1616.7
2017-Jul-13 09:29N 36°14' E 015°10'1017.0
2017-Jul-13 08:55N 36°14' E 014°58'717.0
2017-Jul-13 08:30N 36°15' E 014°50'817.0
2017-Jul-13 08:00N 36°15' E 014°39'816.7
2017-Jul-13 07:30N 36°15' E 014°29'917.0
2017-Jul-13 07:00N 36°18' E 014°19'817.0
2017-Jul-13 06:30N 36°21' E 014°09'917.0
2017-Jul-13 06:00N 36°24' E 013°59'917.1
2017-Jul-13 05:30N 36°27' E 013°49'917.1
2017-Jul-13 05:00N 36°30' E 013°39'917.1
2017-Jul-13 04:30N 36°33' E 013°29'817.0
2017-Jul-13 04:01N 36°36' E 013°19'816.7
2017-Jul-13 03:30N 36°39' E 013°10'816.6
2017-Jul-13 03:00N 36°42' E 013°00'816.9
2017-Jul-13 02:30N 36°45' E 012°50'916.6
2017-Jul-13 01:59N 36°48' E 012°40'917.1
2017-Jul-13 01:30N 36°51' E 012°30'917.5
2017-Jul-13 01:00N 36°54' E 012°20'918.2
2017-Jul-13 00:30N 36°57' E 012°10'918.0
2017-Jul-13 00:01N 37°00' E 011°59'917.7
2017-Jul-12 23:30N 37°05' E 011°49'917.4
2017-Jul-12 23:00N 37°09' E 011°40'917.3
2017-Jul-12 22:30N 37°13' E 011°30'817.0
2017-Jul-12 22:00N 37°17' E 011°21'916.9
2017-Jul-12 21:30N 37°21' E 011°11'917.2
2017-Jul-12 21:00N 37°25' E 011°02'917.2
2017-Jul-12 20:30N 37°29' E 010°52'917.3
2017-Jul-12 19:58N 37°33' E 010°42'817.2
2017-Jul-12 19:30N 37°36' E 010°32'917.3
2017-Jul-12 19:01N 37°40' E 010°23'917.4
2017-Jul-12 18:30N 37°42' E 010°12'917.5
2017-Jul-12 18:00N 37°43' E 010°01'917.6
2017-Jul-12 17:30N 37°44' E 009°50'917.8
2017-Jul-12 17:00N 37°45' E 009°39'917.7
2017-Jul-12 16:30N 37°46' E 009°28'1017.7
2017-Jul-12 15:58N 37°47' E 009°16'817.7
2017-Jul-12 15:30N 37°48' E 009°05'917.7
2017-Jul-12 15:00N 37°50' E 008°54'13517.3
2017-Jul-12 07:14N 37°27' E 006°07'417.3
2017-Jul-12 06:59N 37°27' E 006°01'817.2
2017-Jul-12 06:30N 37°25' E 005°51'917.3
2017-Jul-12 06:00N 37°23' E 005°40'917.0
2017-Jul-12 05:30N 37°22' E 005°30'917.1
2017-Jul-12 05:00N 37°21' E 005°19'917.3
2017-Jul-12 04:30N 37°19' E 005°08'917.4
2017-Jul-12 04:00N 37°18' E 004°58'917.2
2017-Jul-12 03:30N 37°16' E 004°47'917.1
2017-Jul-12 02:57N 37°14' E 004°35'817.0
2017-Jul-12 02:30N 37°13' E 004°26'817.0
2017-Jul-12 02:00N 37°12' E 004°15'916.8
2017-Jul-12 01:28N 37°10' E 004°04'716.4
2017-Jul-12 01:00N 37°08' E 003°55'916.8
2017-Jul-12 00:29N 37°07' E 003°44'816.8
2017-Jul-12 00:00N 37°07' E 003°34'816.7
2017-Jul-11 23:30N 37°06' E 003°24'916.8
2017-Jul-11 23:00N 37°05' E 003°13'817.2
2017-Jul-11 22:30N 37°03' E 003°03'816.9
2017-Jul-11 22:00N 37°01' E 002°52'817.0
2017-Jul-11 21:30N 36°57' E 002°43'816.2
2017-Jul-11 21:00N 36°57' E 002°33'916.7
2017-Jul-11 20:30N 36°55' E 002°22'1116.7
2017-Jul-11 19:50N 36°53' E 002°09'516.6
2017-Jul-11 19:30N 36°53' E 002°02'816.9
2017-Jul-11 19:00N 36°51' E 001°51'816.9
2017-Jul-11 18:30N 36°50' E 001°41'816.5
2017-Jul-11 18:00N 36°48' E 001°31'816.7
2017-Jul-11 17:30N 36°47' E 001°21'816.8
2017-Jul-11 17:00N 36°46' E 001°10'917.1
2017-Jul-11 16:30N 36°44' E 000°60'917.5
2017-Jul-11 16:00N 36°43' E 000°49'917.1
2017-Jul-11 15:30N 36°41' E 000°38'816.6
2017-Jul-11 15:00N 36°40' E 000°28'817.1
2017-Jul-11 14:30N 36°38' E 000°18'917.1
2017-Jul-11 14:01N 36°37' E 000°07'917.2
2017-Jul-11 13:30N 36°35' W 000°03'917.1
2017-Jul-11 13:00N 36°34' W 000°14'916.6
2017-Jul-11 12:29N 36°33' W 000°25'815.8
2017-Jul-11 12:00N 36°32' W 000°34'815.7
2017-Jul-11 11:31N 36°31' W 000°43'1115.6
2017-Jul-11 10:49N 36°28' W 000°56'2815.9
2017-Jul-11 09:03N 36°22' W 001°31'116.2
2017-Jul-11 09:01N 36°22' W 001°31'816.4
2017-Jul-11 08:30N 36°21' W 001°41'816.7
2017-Jul-11 08:00N 36°20' W 001°52'816.8
2017-Jul-11 07:30N 36°18' W 002°02'1516.5
2017-Jul-11 06:35N 36°15' W 002°20'116.5
2017-Jul-11 06:30N 36°14' W 002°22'13016.2
2017-Jul-10 22:29N 36°01' W 005°02'817.7
2017-Jul-10 22:00N 35°60' W 005°12'918.5
2017-Jul-10 21:30N 35°58' W 005°23'918.1
2017-Jul-10 20:59N 35°55' W 005°35'916.7
2017-Jul-10 20:25N 35°53' W 005°46'716.5
2017-Jul-10 19:59N 35°51' W 005°54'  
Track history (hours):
 
Tides and Currents Weather Stations Pressure Air Temp Water Temp Dewpoint Dewpoint Depression Visibility Wind Speed Wind Dir Waves Ship Positions

Hoegh Berlin

Last reported at 2017-Jul-19 18:10 UTC. Time now 2017-Aug-24 03:07 UTC.
Position N 31°39' E 032°27'.
Warning: this ship's position is 35 days out of date.

Length 228 m; draft 8.6 m.

Type: Cargo ship. MMSI: 311019100.

Date/timePositionNaut miles runAvg speedWind from/ knotsBaromVisibWave heightAir tempDewpointWater temp
2017-Jul-19 18:10N 31°39' E 032°27'1512.8
2017-Jul-19 17:01N 31°49' E 032°39'013.2
2017-Jul-19 16:59N 31°49' E 032°40'713.0
2017-Jul-19 16:28N 31°48' E 032°48'6 2.8
2017-Jul-19 14:14N 31°50' E 032°55'0 1.6
2017-Jul-19 14:00N 31°50' E 032°54'1 1.6
2017-Jul-19 13:31N 31°51' E 032°54'1 1.5
2017-Jul-19 12:32N 31°52' E 032°53'0 1.4
2017-Jul-19 12:30N 31°52' E 032°52'6 0.9
2017-Jul-19 05:52N 31°55' E 032°47'12 8.3
2017-Jul-19 04:21N 32°04' E 032°57'813.6
2017-Jul-19 03:46N 32°10' E 033°04'513.5
2017-Jul-19 03:24N 32°13' E 033°08'613.4
2017-Jul-19 02:58N 32°17' E 033°13'613.4
2017-Jul-19 02:30N 32°22' E 033°18'713.3
2017-Jul-19 02:01N 32°26' E 033°24'713.5
2017-Jul-19 01:30N 32°31' E 033°30'713.5
2017-Jul-19 01:00N 32°36' E 033°35'713.7
2017-Jul-19 00:30N 32°40' E 033°41'713.9
2017-Jul-19 00:00N 32°45' E 033°47'714.0
2017-Jul-18 23:30N 32°50' E 033°53'714.0
2017-Jul-18 23:00N 32°55' E 033°58'714.0
2017-Jul-18 22:30N 33°00' E 034°04'713.9
2017-Jul-18 22:00N 33°05' E 034°10'713.9
2017-Jul-18 21:30N 33°10' E 034°16'713.8
2017-Jul-18 21:00N 33°15' E 034°22'713.8
2017-Jul-18 20:30N 33°20' E 034°28'713.9
2017-Jul-18 20:00N 33°24' E 034°34'713.8
2017-Jul-18 19:30N 33°29' E 034°40'713.8
2017-Jul-18 19:01N 33°34' E 034°46'713.8
2017-Jul-18 18:31N 33°39' E 034°51'713.6
2017-Jul-18 18:01N 33°44' E 034°57'713.8
2017-Jul-18 17:30N 33°49' E 035°03'713.9
2017-Jul-18 16:58N 33°54' E 035°09'2 0.2
2017-Jul-18 03:11N 33°54' E 035°12'314.6
2017-Jul-18 03:00N 33°54' E 035°09'915.0
2017-Jul-18 02:23N 33°56' E 034°58'1815.4
2017-Jul-18 01:13N 34°01' E 034°37'415.4
2017-Jul-18 00:59N 34°02' E 034°33'2115.3
2017-Jul-17 23:38N 34°08' E 034°09'215.8
2017-Jul-17 23:30N 34°08' E 034°07'2615.8
2017-Jul-17 21:51N 34°16' E 033°37'615.8
2017-Jul-17 21:30N 34°18' E 033°30'816.0
2017-Jul-17 21:00N 34°20' E 033°21'816.3
2017-Jul-17 20:30N 34°22' E 033°12'816.3
2017-Jul-17 20:00N 34°25' E 033°02'816.1
2017-Jul-17 19:30N 34°27' E 032°53'1616.0
2017-Jul-17 18:30N 34°32' E 032°34'815.9
2017-Jul-17 18:00N 34°34' E 032°25'815.9
2017-Jul-17 17:30N 34°36' E 032°16'815.6
2017-Jul-17 17:00N 34°38' E 032°07'915.7
2017-Jul-17 16:27N 34°41' E 031°57'715.9
2017-Jul-17 16:00N 34°43' E 031°48'3515.8
2017-Jul-17 13:47N 34°53' E 031°08'415.8
2017-Jul-17 13:30N 34°55' E 031°03'815.8
2017-Jul-17 13:00N 34°57' E 030°53'6116.7
2017-Jul-17 09:23N 35°15' E 029°43'1416.7
2017-Jul-17 08:34N 35°19' E 029°26'116.7
2017-Jul-17 08:29N 35°19' E 029°25'2116.7
2017-Jul-17 07:13N 35°25' E 029°00'416.6
2017-Jul-17 07:00N 35°26' E 028°56'18714.4
2017-Jul-16 17:58N 37°24' E 025°55'714.2
2017-Jul-16 17:30N 37°28' E 025°48'815.2
2017-Jul-16 17:00N 37°35' E 025°45'815.7
2017-Jul-16 16:30N 37°42' E 025°42'815.8
2017-Jul-16 16:00N 37°50' E 025°38'55 1.1
2017-Jul-14 16:25N 37°40' E 024°30'44114.7
2017-Jul-13 10:25N 36°13' E 015°30'1616.7
2017-Jul-13 09:29N 36°14' E 015°10'1017.0
2017-Jul-13 08:55N 36°14' E 014°58'717.0
2017-Jul-13 08:30N 36°15' E 014°50'817.0
2017-Jul-13 08:00N 36°15' E 014°39'816.7
2017-Jul-13 07:30N 36°15' E 014°29'917.0
2017-Jul-13 07:00N 36°18' E 014°19'817.0
2017-Jul-13 06:30N 36°21' E 014°09'917.0
2017-Jul-13 06:00N 36°24' E 013°59'917.1
2017-Jul-13 05:30N 36°27' E 013°49'917.1
2017-Jul-13 05:00N 36°30' E 013°39'917.1
2017-Jul-13 04:30N 36°33' E 013°29'817.0
2017-Jul-13 04:01N 36°36' E 013°19'816.7
2017-Jul-13 03:30N 36°39' E 013°10'816.6
2017-Jul-13 03:00N 36°42' E 013°00'816.9
2017-Jul-13 02:30N 36°45' E 012°50'916.6
2017-Jul-13 01:59N 36°48' E 012°40'917.1
2017-Jul-13 01:30N 36°51' E 012°30'917.5
2017-Jul-13 01:00N 36°54' E 012°20'918.2
2017-Jul-13 00:30N 36°57' E 012°10'918.0
2017-Jul-13 00:01N 37°00' E 011°59'917.7
2017-Jul-12 23:30N 37°05' E 011°49'917.4
2017-Jul-12 23:00N 37°09' E 011°40'917.3
2017-Jul-12 22:30N 37°13' E 011°30'817.0
2017-Jul-12 22:00N 37°17' E 011°21'916.9
2017-Jul-12 21:30N 37°21' E 011°11'917.2
2017-Jul-12 21:00N 37°25' E 011°02'917.2
2017-Jul-12 20:30N 37°29' E 010°52'917.3
2017-Jul-12 19:58N 37°33' E 010°42'817.2
2017-Jul-12 19:30N 37°36' E 010°32'917.3
2017-Jul-12 19:01N 37°40' E 010°23'917.4
2017-Jul-12 18:30N 37°42' E 010°12'917.5
2017-Jul-12 18:00N 37°43' E 010°01'917.6
2017-Jul-12 17:30N 37°44' E 009°50'917.8
2017-Jul-12 17:00N 37°45' E 009°39'917.7
2017-Jul-12 16:30N 37°46' E 009°28'1017.7
2017-Jul-12 15:58N 37°47' E 009°16'817.7
2017-Jul-12 15:30N 37°48' E 009°05'917.7
2017-Jul-12 15:00N 37°50' E 008°54'13517.3
2017-Jul-12 07:14N 37°27' E 006°07'417.3
2017-Jul-12 06:59N 37°27' E 006°01'817.2
2017-Jul-12 06:30N 37°25' E 005°51'917.3
2017-Jul-12 06:00N 37°23' E 005°40'917.0
2017-Jul-12 05:30N 37°22' E 005°30'917.1
2017-Jul-12 05:00N 37°21' E 005°19'917.3
2017-Jul-12 04:30N 37°19' E 005°08'917.4
2017-Jul-12 04:00N 37°18' E 004°58'917.2
2017-Jul-12 03:30N 37°16' E 004°47'917.1
2017-Jul-12 02:57N 37°14' E 004°35'817.0
2017-Jul-12 02:30N 37°13' E 004°26'817.0
2017-Jul-12 02:00N 37°12' E 004°15'916.8
2017-Jul-12 01:28N 37°10' E 004°04'716.4
2017-Jul-12 01:00N 37°08' E 003°55'916.8
2017-Jul-12 00:29N 37°07' E 003°44'816.8
2017-Jul-12 00:00N 37°07' E 003°34'816.7
2017-Jul-11 23:30N 37°06' E 003°24'916.8
2017-Jul-11 23:00N 37°05' E 003°13'817.2
2017-Jul-11 22:30N 37°03' E 003°03'816.9
2017-Jul-11 22:00N 37°01' E 002°52'817.0
2017-Jul-11 21:30N 36°57' E 002°43'816.2
2017-Jul-11 21:00N 36°57' E 002°33'916.7
2017-Jul-11 20:30N 36°55' E 002°22'1116.7
2017-Jul-11 19:50N 36°53' E 002°09'516.6
2017-Jul-11 19:30N 36°53' E 002°02'816.9
2017-Jul-11 19:00N 36°51' E 001°51'816.9
2017-Jul-11 18:30N 36°50' E 001°41'816.5
2017-Jul-11 18:00N 36°48' E 001°31'816.7
2017-Jul-11 17:30N 36°47' E 001°21'816.8
2017-Jul-11 17:00N 36°46' E 001°10'917.1
2017-Jul-11 16:30N 36°44' E 000°60'917.5
2017-Jul-11 16:00N 36°43' E 000°49'917.1
2017-Jul-11 15:30N 36°41' E 000°38'816.6
2017-Jul-11 15:00N 36°40' E 000°28'817.1
2017-Jul-11 14:30N 36°38' E 000°18'917.1
2017-Jul-11 14:01N 36°37' E 000°07'917.2
2017-Jul-11 13:30N 36°35' W 000°03'917.1
2017-Jul-11 13:00N 36°34' W 000°14'916.6
2017-Jul-11 12:29N 36°33' W 000°25'815.8
2017-Jul-11 12:00N 36°32' W 000°34'815.7
2017-Jul-11 11:31N 36°31' W 000°43'1115.6
2017-Jul-11 10:49N 36°28' W 000°56'2815.9
2017-Jul-11 09:03N 36°22' W 001°31'116.2
2017-Jul-11 09:01N 36°22' W 001°31'816.4
2017-Jul-11 08:30N 36°21' W 001°41'816.7
2017-Jul-11 08:00N 36°20' W 001°52'816.8
2017-Jul-11 07:30N 36°18' W 002°02'1516.5
2017-Jul-11 06:35N 36°15' W 002°20'116.5
2017-Jul-11 06:30N 36°14' W 002°22'13016.2
2017-Jul-10 22:29N 36°01' W 005°02'817.7
2017-Jul-10 22:00N 35°60' W 005°12'918.5
2017-Jul-10 21:30N 35°58' W 005°23'918.1
2017-Jul-10 20:59N 35°55' W 005°35'916.7
2017-Jul-10 20:25N 35°53' W 005°46'716.5
2017-Jul-10 19:59N 35°51' W 005°54'  

Dump ship's entire track history